createdAt,value
2023-04-09T00:01:12.143Z,4.72
2023-04-09T00:06:15.020Z,5.13
2023-04-09T00:11:19.335Z,5.15
2023-04-09T00:16:22.304Z,4.07
2023-04-09T00:21:25.245Z,3.88
2023-04-09T00:26:31.515Z,4.90
2023-04-09T00:31:35.613Z,4.80
2023-04-09T00:36:38.586Z,4.68
2023-04-09T00:41:41.557Z,4.07
2023-04-09T00:46:44.559Z,4.28
2023-04-09T00:51:48.756Z,4.30
2023-04-09T00:56:52.124Z,3.80
2023-04-09T01:01:55.219Z,4.03
2023-04-09T01:07:27.325Z,4.15
2023-04-09T01:12:46.323Z,3.60
2023-04-09T01:18:12.577Z,3.58
2023-04-09T01:23:29.864Z,3.35
2023-04-09T01:28:35.992Z,3.25
2023-04-09T01:33:40.177Z,3.53
2023-04-09T01:38:45.248Z,3.65
2023-04-09T01:43:51.601Z,3.28
2023-04-09T01:54:00.733Z,2.90
2023-04-09T01:59:03.684Z,3.25
2023-04-09T02:04:30.416Z,3.08
2023-04-09T02:09:38.177Z,3.20
2023-04-09T02:14:41.868Z,3.47
2023-04-09T02:19:47.342Z,2.85
2023-04-09T02:24:50.230Z,3.10
2023-04-09T02:29:53.640Z,2.95
2023-04-09T02:34:56.704Z,3.58
2023-04-09T02:39:59.682Z,2.28
2023-04-09T02:45:02.588Z,3.05
2023-04-09T02:50:08.627Z,3.45
2023-04-09T02:55:15.215Z,2.65
2023-04-09T03:00:18.321Z,3.10
2023-04-09T03:05:21.494Z,2.47
2023-04-09T03:10:24.681Z,3.00
2023-04-09T03:15:27.652Z,2.83
2023-04-09T03:20:30.625Z,2.53
2023-04-09T03:25:34.041Z,3.38
2023-04-09T03:30:46.057Z,2.30
2023-04-09T03:35:50.755Z,2.90
2023-04-09T03:41:00.343Z,2.55
2023-04-09T03:46:12.703Z,2.83
2023-04-09T03:51:16.218Z,1.58
2023-04-09T03:56:25.776Z,2.05
2023-04-09T04:01:29.323Z,1.88
2023-04-09T04:06:36.176Z,3.40
2023-04-09T04:12:05.023Z,3.75
2023-04-09T04:17:25.887Z,3.95
2023-04-09T04:22:30.505Z,4.35
2023-04-09T04:27:36.383Z,3.85
2023-04-09T04:32:40.300Z,3.97
2023-04-09T04:37:51.230Z,3.80
2023-04-09T04:42:54.923Z,4.72
2023-04-09T04:47:57.980Z,4.15
2023-04-09T04:53:01.107Z,2.40
2023-04-09T04:58:09.152Z,2.03
2023-04-09T05:03:22.628Z,2.08
2023-04-09T05:08:32.314Z,1.85
2023-04-09T05:13:35.295Z,1.58
2023-04-09T05:18:41.749Z,1.98
2023-04-09T05:23:44.753Z,2.42
2023-04-09T05:28:47.871Z,2.10
2023-04-09T05:33:54.623Z,3.95
2023-04-09T05:39:03.864Z,4.50
2023-04-09T05:44:07.450Z,3.28
2023-04-09T05:49:13.632Z,3.25
2023-04-09T05:54:19.335Z,3.70
2023-04-09T05:59:22.998Z,2.38
2023-04-09T06:04:26.182Z,1.73
2023-04-09T06:09:29.369Z,1.67
2023-04-09T06:14:33.459Z,2.65
2023-04-09T06:19:36.497Z,2.10
2023-04-09T06:24:39.526Z,2.70
2023-04-09T06:29:42.480Z,2.03
2023-04-09T06:34:45.510Z,2.50
2023-04-09T06:40:00.477Z,2.90
2023-04-09T06:45:08.934Z,2.58
2023-04-09T06:50:12.059Z,1.50
2023-04-09T06:55:14.991Z,1.75
2023-04-09T07:00:17.901Z,3.20
2023-04-09T07:05:20.926Z,1.73
2023-04-09T07:10:23.894Z,1.80
2023-04-09T07:15:26.910Z,1.35
2023-04-09T07:20:29.942Z,1.90
2023-04-09T07:25:33.103Z,1.55
2023-04-09T07:30:36.325Z,1.38
2023-04-09T07:35:39.352Z,1.27
2023-04-09T07:40:42.448Z,1.33
2023-04-09T07:45:45.522Z,2.10
2023-04-09T07:50:48.698Z,1.90
2023-04-09T07:55:52.179Z,1.90
2023-04-09T08:00:55.121Z,1.40
2023-04-09T08:05:58.046Z,0.90
2023-04-09T08:11:01.030Z,1.15
2023-04-09T08:16:04.407Z,1.70
2023-04-09T08:21:07.498Z,1.70
2023-04-09T08:26:10.671Z,2.10
2023-04-09T08:31:13.784Z,1.90
2023-04-09T08:36:17.069Z,1.38
2023-04-09T08:41:21.831Z,1.90
2023-04-09T08:46:25.285Z,1.48
2023-04-09T08:51:29.119Z,2.28
2023-04-09T08:56:32.761Z,1.60
2023-04-09T09:01:36.043Z,1.70
2023-04-09T09:06:41.368Z,2.17
2023-04-09T09:11:48.686Z,1.80
2023-04-09T09:16:58.043Z,2.45
2023-04-09T09:22:06.967Z,1.90
2023-04-09T09:27:09.950Z,1.88
2023-04-09T09:32:14.561Z,2.10
2023-04-09T09:37:28.402Z,1.38
2023-04-09T09:42:32.871Z,2.20
2023-04-09T09:47:36.931Z,1.52
2023-04-09T09:52:41.318Z,1.80
2023-04-09T09:57:45.856Z,1.83
2023-04-09T10:02:57.117Z,1.60
2023-04-09T10:08:00.936Z,1.98
2023-04-09T10:13:07.914Z,2.13
2023-04-09T10:18:10.948Z,1.25
2023-04-09T10:23:24.849Z,1.60
2023-04-09T10:28:27.822Z,4.18
2023-04-09T10:33:30.761Z,1.85
2023-04-09T10:38:35.062Z,2.42
2023-04-09T10:43:38.038Z,1.38
2023-04-09T10:48:41.274Z,1.90
2023-04-09T10:53:44.191Z,2.22
2023-04-09T10:58:47.190Z,1.77
2023-04-09T11:04:16.884Z,2.13
2023-04-09T11:09:19.860Z,3.70
2023-04-09T11:14:24.147Z,1.58
2023-04-09T11:19:27.362Z,1.98
2023-04-09T11:24:42.956Z,1.90
2023-04-09T11:29:46.154Z,2.05
2023-04-09T11:34:52.732Z,2.38
2023-04-09T11:39:57.896Z,2.22
2023-04-09T11:45:01.578Z,2.40
2023-04-09T11:50:07.242Z,2.35
2023-04-09T11:55:10.692Z,2.25
2023-04-09T12:00:16.381Z,2.08
2023-04-09T12:05:25.014Z,1.60
2023-04-09T12:10:30.214Z,2.20
2023-04-09T12:15:37.623Z,2.35
2023-04-09T12:20:44.467Z,2.10
2023-04-09T12:25:48.382Z,1.98
2023-04-09T12:30:51.918Z,3.92
2023-04-09T12:35:54.928Z,2.50
2023-04-09T12:40:57.959Z,3.15
2023-04-09T12:46:01.335Z,2.35
2023-04-09T12:51:24.376Z,2.45
2023-04-09T12:56:47.398Z,2.05
2023-04-09T13:01:50.763Z,2.30
2023-04-09T13:06:53.701Z,2.40
2023-04-09T13:11:56.721Z,2.22
2023-04-09T13:17:00.015Z,2.30
2023-04-09T13:22:03.375Z,3.38
2023-04-09T13:27:07.355Z,2.08
2023-04-09T13:32:24.551Z,2.20
2023-04-09T13:37:27.567Z,2.30
2023-04-09T13:42:31.771Z,2.53
2023-04-09T13:47:53.158Z,2.78
2023-04-09T13:53:15.217Z,2.55
2023-04-09T13:58:36.889Z,2.53
2023-04-09T14:03:40.569Z,3.15
2023-04-09T14:08:43.784Z,2.92
2023-04-09T14:13:47.348Z,3.15
2023-04-09T14:18:50.297Z,2.97
2023-04-09T14:23:53.493Z,2.90
2023-04-09T14:28:56.617Z,3.50
2023-04-09T14:33:59.611Z,3.20
2023-04-09T14:39:02.565Z,3.10
2023-04-09T14:44:05.543Z,2.40
2023-04-09T14:49:08.468Z,3.38
2023-04-09T14:54:11.632Z,2.58
2023-04-09T14:59:14.626Z,2.83
2023-04-09T15:04:18.182Z,2.50
2023-04-09T15:09:21.283Z,2.88
2023-04-09T15:14:24.420Z,3.25
2023-04-09T15:19:27.408Z,2.38
2023-04-09T15:24:30.358Z,2.97
2023-04-09T15:29:33.777Z,3.25
2023-04-09T15:34:36.771Z,2.55
2023-04-09T15:39:39.747Z,2.58
2023-04-09T15:44:42.646Z,2.90
2023-04-09T15:49:45.608Z,4.05
2023-04-09T15:54:48.555Z,4.72
2023-04-09T15:59:52.669Z,4.88
2023-04-09T16:04:55.925Z,5.68
2023-04-09T16:10:00.625Z,5.90
2023-04-09T16:15:03.824Z,6.53
2023-04-09T16:20:08.718Z,6.82
2023-04-09T16:25:11.820Z,6.60
2023-04-09T16:30:14.992Z,7.55
2023-04-09T16:35:18.831Z,8.90
2023-04-09T16:40:24.606Z,9.15
2023-04-09T16:45:27.798Z,9.63
2023-04-09T16:50:30.827Z,11.20
2023-04-09T16:55:34.607Z,9.73
2023-04-09T17:00:38.197Z,10.82
2023-04-09T17:05:41.223Z,11.35
2023-04-09T17:10:45.024Z,10.40
2023-04-09T17:15:48.004Z,9.27
2023-04-09T17:20:51.356Z,9.07
2023-04-09T17:25:54.350Z,9.57
2023-04-09T17:30:57.507Z,10.25
2023-04-09T17:36:01.811Z,10.82
2023-04-09T17:41:07.049Z,10.82
2023-04-09T17:46:11.921Z,10.05
2023-04-09T17:51:16.815Z,10.15
2023-04-09T17:56:20.605Z,9.68
2023-04-09T18:01:23.877Z,10.18
2023-04-09T18:06:28.081Z,11.35
2023-04-09T18:11:31.068Z,11.70
2023-04-09T18:16:39.779Z,11.57
2023-04-09T18:21:42.861Z,11.73
2023-04-09T18:26:45.805Z,12.73
2023-04-09T18:31:48.782Z,12.95
2023-04-09T18:36:53.897Z,15.65
2023-04-09T18:41:57.868Z,12.00
2023-04-09T18:47:02.221Z,12.63
2023-04-09T18:52:09.531Z,11.77
2023-04-09T18:57:13.199Z,9.40
2023-04-09T19:02:16.290Z,9.07
2023-04-09T19:07:22.477Z,8.98
2023-04-09T19:12:27.289Z,9.10
2023-04-09T19:17:30.385Z,9.40
2023-04-09T19:22:33.325Z,6.68
2023-04-09T19:27:36.265Z,7.00
2023-04-09T19:32:39.985Z,7.10
2023-04-09T19:37:43.035Z,7.80
2023-04-09T19:42:46.015Z,8.23
2023-04-09T19:47:49.024Z,7.35
2023-04-09T19:52:53.523Z,7.55
2023-04-09T19:57:56.860Z,7.43
2023-04-09T20:03:00.357Z,7.47
2023-04-09T20:08:03.482Z,7.80
2023-04-09T20:13:07.680Z,9.38
2023-04-09T20:18:10.732Z,7.82
2023-04-09T20:23:13.678Z,9.70
2023-04-09T20:28:16.717Z,7.53
2023-04-09T20:33:19.598Z,7.45
2023-04-09T20:38:22.721Z,7.40
2023-04-09T20:43:25.675Z,8.63
2023-04-09T20:48:32.130Z,7.78
2023-04-09T20:53:35.056Z,7.63
2023-04-09T20:58:38.099Z,7.15
2023-04-09T21:03:41.409Z,6.82
2023-04-09T21:08:44.592Z,8.45
2023-04-09T21:13:54.408Z,7.70
2023-04-09T21:18:58.748Z,7.85
2023-04-09T21:24:02.072Z,7.18
2023-04-09T21:29:05.053Z,8.07
2023-04-09T21:34:07.993Z,7.75
2023-04-09T21:39:11.141Z,7.80
2023-04-09T21:44:14.019Z,7.05
2023-04-09T21:49:17.630Z,7.18
2023-04-09T21:54:20.625Z,6.47
2023-04-09T21:59:23.496Z,5.10
2023-04-09T22:04:26.602Z,5.45
2023-04-09T22:09:29.616Z,5.53
2023-04-09T22:14:32.954Z,5.25
2023-04-09T22:19:36.033Z,7.45
2023-04-09T22:24:39.630Z,4.53
2023-04-09T22:29:42.580Z,3.72
2023-04-09T22:34:45.599Z,4.07
2023-04-09T22:39:49.052Z,4.15
2023-04-09T22:44:52.146Z,3.75
2023-04-09T22:49:55.192Z,3.55
2023-04-09T22:54:59.080Z,3.38
2023-04-09T23:00:02.073Z,3.33
2023-04-09T23:05:06.410Z,2.85
2023-04-09T23:10:11.323Z,3.25
2023-04-09T23:15:14.727Z,2.65
2023-04-09T23:20:17.834Z,3.83
2023-04-09T23:25:22.754Z,3.65
2023-04-09T23:30:25.906Z,3.28
2023-04-09T23:35:28.868Z,2.78
2023-04-09T23:40:31.988Z,3.72
2023-04-09T23:45:34.843Z,3.28
2023-04-09T23:50:42.089Z,4.32
2023-04-09T23:55:47.230Z,5.82
